createdAt,value
2023-08-21T00:00:14.656Z,6.13
2023-08-21T00:01:16.442Z,6.50
2023-08-21T00:02:18.180Z,6.88
2023-08-21T00:03:19.984Z,11.05
2023-08-21T00:04:21.861Z,6.00
2023-08-21T00:05:23.588Z,9.73
2023-08-21T00:06:25.371Z,5.93
2023-08-21T00:07:27.096Z,8.23
2023-08-21T00:08:28.830Z,7.35
2023-08-21T00:09:30.591Z,5.78
2023-08-21T00:10:34.159Z,9.45
2023-08-21T00:11:36.324Z,5.22
2023-08-21T00:12:38.202Z,5.75
2023-08-21T00:13:40.295Z,7.25
2023-08-21T00:14:42.036Z,8.10
2023-08-21T00:15:43.830Z,9.25
2023-08-21T00:16:45.610Z,7.28
2023-08-21T00:17:48.398Z,7.72
2023-08-21T00:18:50.424Z,7.78
2023-08-21T00:19:52.354Z,7.65
2023-08-21T00:20:54.114Z,10.65
2023-08-21T00:21:55.962Z,5.72
2023-08-21T00:22:58.058Z,6.70
2023-08-21T00:23:59.821Z,9.90
2023-08-21T00:25:01.563Z,8.55
2023-08-21T00:26:03.574Z,7.80
2023-08-21T00:27:05.407Z,5.97
2023-08-21T00:28:08.123Z,9.38
2023-08-21T00:29:09.893Z,6.50
2023-08-21T00:30:13.882Z,7.18
2023-08-21T00:31:15.662Z,7.65
2023-08-21T00:32:17.470Z,8.98
2023-08-21T00:33:19.221Z,8.82
2023-08-21T00:34:20.966Z,9.05
2023-08-21T00:35:22.714Z,9.40
2023-08-21T00:36:24.558Z,7.53
2023-08-21T00:37:26.354Z,8.55
2023-08-21T00:38:28.188Z,6.32
2023-08-21T00:39:29.927Z,13.00
2023-08-21T00:40:32.708Z,10.15
2023-08-21T00:41:35.584Z,8.32
2023-08-21T00:42:37.623Z,11.90
2023-08-21T00:43:39.618Z,6.45
2023-08-21T00:44:41.425Z,6.65
2023-08-21T00:45:46.097Z,9.52
2023-08-21T00:46:48.128Z,6.40
2023-08-21T00:47:50.213Z,6.85
2023-08-21T00:48:52.697Z,6.70
2023-08-21T00:49:54.564Z,11.80
2023-08-21T00:50:57.068Z,8.75
2023-08-21T00:51:58.819Z,6.80
2023-08-21T00:53:01.775Z,8.35
2023-08-21T00:54:03.647Z,8.35
2023-08-21T00:55:05.771Z,6.68
2023-08-21T00:56:08.067Z,7.03
2023-08-21T00:57:11.236Z,8.40
2023-08-21T00:58:14.052Z,6.78
2023-08-21T00:59:15.924Z,9.77
2023-08-21T01:00:17.719Z,6.30
2023-08-21T01:01:21.597Z,6.30
2023-08-21T01:02:23.489Z,5.38
2023-08-21T01:03:25.508Z,5.68
2023-08-21T01:04:27.292Z,6.05
2023-08-21T01:05:29.171Z,6.00
2023-08-21T01:06:31.042Z,8.27
2023-08-21T01:07:43.333Z,6.72
2023-08-21T01:09:08.512Z,7.28
2023-08-21T01:10:22.222Z,5.60
2023-08-21T01:11:36.904Z,6.60
2023-08-21T01:12:49.894Z,7.32
2023-08-21T01:14:07.725Z,5.80
2023-08-21T01:15:11.101Z,8.02
2023-08-21T01:16:15.112Z,9.25
2023-08-21T01:17:19.056Z,9.93
2023-08-21T01:18:22.421Z,5.93
2023-08-21T01:19:33.043Z,6.03
2023-08-21T01:20:34.965Z,5.95
2023-08-21T01:21:36.763Z,9.38
2023-08-21T01:22:46.852Z,9.55
2023-08-21T01:23:48.634Z,7.10
2023-08-21T01:24:50.345Z,9.43
2023-08-21T01:25:52.103Z,5.35
2023-08-21T01:26:53.869Z,6.38
2023-08-21T01:27:55.605Z,5.38
2023-08-21T01:28:57.373Z,6.75
2023-08-21T01:30:00.035Z,7.22
2023-08-21T01:31:04.820Z,8.65
2023-08-21T01:32:15.208Z,6.75
2023-08-21T01:33:18.458Z,6.35
2023-08-21T01:34:20.869Z,7.93
2023-08-21T01:35:23.680Z,6.22
2023-08-21T01:36:26.676Z,6.50
2023-08-21T01:37:30.149Z,8.63
2023-08-21T01:38:36.405Z,8.52
2023-08-21T01:39:38.258Z,9.68
2023-08-21T01:40:41.289Z,10.38
2023-08-21T01:41:43.443Z,5.32
2023-08-21T01:42:45.172Z,5.97
2023-08-21T01:43:46.978Z,6.60
2023-08-21T01:44:50.864Z,10.23
2023-08-21T01:45:52.666Z,5.82
2023-08-21T01:46:54.933Z,9.30
2023-08-21T01:47:56.691Z,6.20
2023-08-21T01:48:58.449Z,7.18
2023-08-21T01:50:00.248Z,6.47
2023-08-21T01:51:03.748Z,7.80
2023-08-21T01:52:05.932Z,6.03
2023-08-21T01:53:07.696Z,8.88
2023-08-21T01:54:09.476Z,8.38
2023-08-21T01:55:11.747Z,5.63
2023-08-21T01:56:13.469Z,5.32
2023-08-21T01:57:15.462Z,10.05
2023-08-21T01:58:17.199Z,6.22
2023-08-21T01:59:19.029Z,9.88
2023-08-21T02:00:20.767Z,6.63
2023-08-21T02:01:22.711Z,5.95
2023-08-21T02:02:24.543Z,6.80
2023-08-21T02:03:27.066Z,6.72
2023-08-21T02:04:28.809Z,7.25
2023-08-21T02:05:30.574Z,7.53
2023-08-21T02:06:32.361Z,6.65
2023-08-21T02:07:34.303Z,5.32
2023-08-21T02:08:36.267Z,7.18
2023-08-21T02:09:38.116Z,7.07
2023-08-21T02:10:51.452Z,7.40
2023-08-21T02:11:53.204Z,6.13
2023-08-21T02:12:55.515Z,6.05
2023-08-21T02:13:57.297Z,5.50
2023-08-21T02:14:59.040Z,7.35
2023-08-21T02:16:01.119Z,9.57
2023-08-21T02:17:04.055Z,8.20
2023-08-21T02:18:06.186Z,7.32
2023-08-21T02:19:08.140Z,7.47
2023-08-21T02:20:11.176Z,6.68
2023-08-21T02:21:13.186Z,6.22
2023-08-21T02:22:14.953Z,6.35
2023-08-21T02:23:19.495Z,7.85
2023-08-21T02:24:21.263Z,10.07
2023-08-21T02:25:23.119Z,5.63
2023-08-21T02:26:24.929Z,6.43
2023-08-21T02:27:26.703Z,5.47
2023-08-21T02:28:28.636Z,8.45
2023-08-21T02:29:30.351Z,13.90
2023-08-21T02:30:32.131Z,7.28
2023-08-21T02:31:33.917Z,8.13
2023-08-21T02:32:36.421Z,6.95
2023-08-21T02:33:38.673Z,6.80
2023-08-21T02:34:41.134Z,5.65
2023-08-21T02:35:42.942Z,7.97
2023-08-21T02:36:44.717Z,5.85
2023-08-21T02:37:46.527Z,10.13
2023-08-21T02:38:48.293Z,7.80
2023-08-21T02:39:50.044Z,7.85
2023-08-21T02:40:51.888Z,10.88
2023-08-21T02:41:53.679Z,6.82
2023-08-21T02:42:55.425Z,6.03
2023-08-21T02:43:57.159Z,5.00
2023-08-21T02:44:58.967Z,6.88
2023-08-21T02:46:00.878Z,7.63
2023-08-21T02:47:02.620Z,6.05
2023-08-21T02:48:04.753Z,5.38
2023-08-21T02:49:06.503Z,7.70
2023-08-21T02:50:10.776Z,6.93
2023-08-21T02:51:12.533Z,6.57
2023-08-21T02:52:14.366Z,6.07
2023-08-21T02:53:16.155Z,6.45
2023-08-21T02:54:17.894Z,6.03
2023-08-21T02:55:19.875Z,8.18
2023-08-21T02:56:21.602Z,6.68
2023-08-21T02:57:24.188Z,6.13
2023-08-21T02:58:25.900Z,7.28
2023-08-21T02:59:27.976Z,10.30
2023-08-21T03:00:29.784Z,10.25
2023-08-21T03:01:31.499Z,11.02
2023-08-21T03:02:34.096Z,5.85
2023-08-21T03:03:37.047Z,7.72
2023-08-21T03:04:38.812Z,7.10
2023-08-21T03:05:41.743Z,6.75
2023-08-21T03:06:43.577Z,7.07
2023-08-21T03:07:45.406Z,12.15
2023-08-21T03:08:47.338Z,7.85
2023-08-21T03:09:50.396Z,9.45
2023-08-21T03:10:52.138Z,10.55
2023-08-21T03:11:53.924Z,8.23
2023-08-21T03:12:56.518Z,10.55
2023-08-21T03:13:58.250Z,8.48
2023-08-21T03:15:00.097Z,8.15
2023-08-21T03:16:01.997Z,8.07
2023-08-21T03:17:03.818Z,6.10
2023-08-21T03:18:05.674Z,7.15
2023-08-21T03:19:08.227Z,9.00
2023-08-21T03:20:10.250Z,9.80
2023-08-21T03:21:11.965Z,5.53
2023-08-21T03:22:13.990Z,6.80
2023-08-21T03:23:15.791Z,7.32
2023-08-21T03:24:17.538Z,5.90
2023-08-21T03:25:19.282Z,11.57
2023-08-21T03:26:21.108Z,5.57
2023-08-21T03:27:24.237Z,8.48
2023-08-21T03:28:25.960Z,10.73
2023-08-21T03:29:27.748Z,22.23
2023-08-21T03:30:29.673Z,12.15
2023-08-21T03:31:31.991Z,10.45
2023-08-21T03:32:34.371Z,8.57
2023-08-21T03:33:36.085Z,6.60
2023-08-21T03:34:37.815Z,11.65
2023-08-21T03:35:41.437Z,10.27
2023-08-21T03:36:43.199Z,10.10
2023-08-21T03:37:45.093Z,7.63
2023-08-21T03:38:46.901Z,6.50
2023-08-21T03:39:48.635Z,9.75
2023-08-21T03:40:50.368Z,7.97
2023-08-21T03:41:52.085Z,13.20
2023-08-21T03:42:53.866Z,14.13
2023-08-21T03:43:55.626Z,8.73
2023-08-21T03:44:57.407Z,7.90
2023-08-21T03:45:59.657Z,9.48
2023-08-21T03:47:01.582Z,8.98
2023-08-21T03:48:03.606Z,13.50
2023-08-21T03:49:05.561Z,12.15
2023-08-21T03:50:07.729Z,11.15
2023-08-21T03:51:09.482Z,8.85
2023-08-21T03:52:11.416Z,11.20
2023-08-21T03:53:13.143Z,10.77
2023-08-21T03:54:14.905Z,8.90
2023-08-21T03:55:16.728Z,13.88
2023-08-21T03:56:19.671Z,8.75
2023-08-21T03:57:21.494Z,7.38
2023-08-21T03:58:23.314Z,9.95
2023-08-21T03:59:28.467Z,7.05
2023-08-21T04:00:30.303Z,6.07
2023-08-21T04:01:32.125Z,16.92
2023-08-21T04:02:33.941Z,39.72
2023-08-21T04:03:35.801Z,46.33
2023-08-21T04:04:37.589Z,19.27
2023-08-21T04:05:39.864Z,29.75
2023-08-21T04:06:41.625Z,14.07
2023-08-21T04:07:43.434Z,7.30
2023-08-21T04:08:45.187Z,7.57
2023-08-21T04:09:47.041Z,5.47
2023-08-21T04:10:48.819Z,15.50
2023-08-21T04:11:50.537Z,12.77
2023-08-21T04:12:52.382Z,13.32
2023-08-21T04:13:54.102Z,19.25
2023-08-21T04:14:55.913Z,5.85
2023-08-21T04:15:58.119Z,10.95
2023-08-21T04:16:59.917Z,11.45
2023-08-21T04:18:01.822Z,11.30
2023-08-21T04:19:03.591Z,12.18
2023-08-21T04:20:06.033Z,18.00
2023-08-21T04:21:07.924Z,9.85
2023-08-21T04:22:09.672Z,11.02
2023-08-21T04:23:11.578Z,5.75
2023-08-21T04:24:13.322Z,10.85
2023-08-21T04:25:15.104Z,18.30
2023-08-21T04:26:17.006Z,20.40
2023-08-21T04:27:18.820Z,9.85
2023-08-21T04:28:20.665Z,5.78
2023-08-21T04:29:22.457Z,19.65
2023-08-21T04:30:24.199Z,13.68
2023-08-21T04:31:26.009Z,18.25
2023-08-21T04:32:29.240Z,12.50
2023-08-21T04:33:31.019Z,17.42
2023-08-21T04:34:34.051Z,9.15
2023-08-21T04:35:40.048Z,26.48
2023-08-21T04:36:41.804Z,16.13
2023-08-21T04:37:49.118Z,8.20
2023-08-21T04:38:50.850Z,23.10
2023-08-21T04:39:53.659Z,17.50
2023-08-21T04:40:55.482Z,13.48
2023-08-21T04:41:57.338Z,11.10
2023-08-21T04:42:59.116Z,18.85
2023-08-21T04:44:01.569Z,19.20
2023-08-21T04:45:03.818Z,13.95
2023-08-21T04:46:06.286Z,16.48
2023-08-21T04:47:28.996Z,13.52
2023-08-21T04:48:30.780Z,27.77
2023-08-21T04:49:32.564Z,40.97
2023-08-21T04:50:34.360Z,31.42
2023-08-21T04:51:36.245Z,40.47
2023-08-21T04:52:38.375Z,50.05
2023-08-21T04:53:40.349Z,51.03
2023-08-21T04:54:42.233Z,37.45
2023-08-21T04:55:44.175Z,33.25
2023-08-21T04:56:45.961Z,61.38
2023-08-21T04:57:47.726Z,30.92
2023-08-21T04:58:49.503Z,42.03
2023-08-21T04:59:51.291Z,53.22
2023-08-21T05:00:53.106Z,50.67
2023-08-21T05:01:54.904Z,32.25
2023-08-21T05:02:56.706Z,57.03
2023-08-21T05:03:58.571Z,20.02
2023-08-21T05:05:00.464Z,15.27
2023-08-21T05:06:02.238Z,31.05
2023-08-21T05:07:04.635Z,14.73
2023-08-21T05:08:07.182Z,19.75
2023-08-21T05:09:08.964Z,14.93
2023-08-21T05:10:10.913Z,16.17
2023-08-21T05:11:12.713Z,9.07
2023-08-21T05:12:14.448Z,15.63
2023-08-21T05:13:19.016Z,8.82
2023-08-21T05:14:21.303Z,17.48
2023-08-21T05:15:23.126Z,17.10
2023-08-21T05:16:24.915Z,13.10
2023-08-21T05:17:27.983Z,7.00
2023-08-21T05:18:29.964Z,5.90
2023-08-21T05:19:31.762Z,12.75
2023-08-21T05:20:33.503Z,9.98
2023-08-21T05:21:35.314Z,13.18
2023-08-21T05:22:37.371Z,6.35
2023-08-21T05:23:39.270Z,10.50
2023-08-21T05:24:41.042Z,8.73
2023-08-21T05:25:44.602Z,12.85
2023-08-21T05:26:48.404Z,15.15
2023-08-21T05:27:50.588Z,14.27
2023-08-21T05:28:52.438Z,11.65
2023-08-21T05:29:54.296Z,13.18
2023-08-21T05:30:57.187Z,14.35
2023-08-21T05:31:59.426Z,19.85
2023-08-21T05:33:03.567Z,15.77
2023-08-21T05:34:05.319Z,18.20
2023-08-21T05:35:07.192Z,11.57
2023-08-21T05:36:08.943Z,13.40
2023-08-21T05:37:11.820Z,10.73
2023-08-21T05:38:13.625Z,12.68
2023-08-21T05:39:15.357Z,8.75
2023-08-21T05:40:17.159Z,14.38
2023-08-21T05:41:19.412Z,17.75
2023-08-21T05:42:21.239Z,9.43
2023-08-21T05:43:23.233Z,13.70
2023-08-21T05:44:24.989Z,8.50
2023-08-21T05:45:26.762Z,12.00
2023-08-21T05:46:28.509Z,12.27
2023-08-21T05:47:30.427Z,5.28
2023-08-21T05:48:32.181Z,8.15
2023-08-21T05:49:33.940Z,5.68
2023-08-21T05:50:38.062Z,8.15
2023-08-21T05:51:39.865Z,5.22
2023-08-21T05:52:43.555Z,8.95
2023-08-21T05:53:45.573Z,7.57
2023-08-21T05:54:47.392Z,6.55
2023-08-21T05:55:49.294Z,7.97
2023-08-21T05:56:51.041Z,10.30
2023-08-21T05:57:52.807Z,9.50
2023-08-21T05:58:54.579Z,9.35
2023-08-21T05:59:56.368Z,11.20
2023-08-21T06:00:58.772Z,7.40
2023-08-21T06:02:03.710Z,5.47
2023-08-21T06:03:06.136Z,7.90
2023-08-21T06:04:08.102Z,11.15
2023-08-21T06:05:10.359Z,10.02
2023-08-21T06:06:12.467Z,11.02
2023-08-21T06:07:14.222Z,11.50
2023-08-21T06:08:15.937Z,11.80
2023-08-21T06:09:18.702Z,6.88
2023-08-21T06:10:20.426Z,12.18
2023-08-21T06:11:22.835Z,8.68
2023-08-21T06:12:24.594Z,7.50
2023-08-21T06:13:27.168Z,10.30
2023-08-21T06:14:31.889Z,6.25
2023-08-21T06:15:33.680Z,9.10
2023-08-21T06:16:35.452Z,6.75
2023-08-21T06:17:38.211Z,5.80
2023-08-21T06:18:40.022Z,8.18
2023-08-21T06:19:41.737Z,14.82
2023-08-21T06:20:46.179Z,8.50
2023-08-21T06:21:47.903Z,6.18
2023-08-21T06:22:49.667Z,6.88
2023-08-21T06:23:51.415Z,7.47
2023-08-21T06:24:53.181Z,7.53
2023-08-21T06:25:54.976Z,8.15
2023-08-21T06:26:59.509Z,5.03
2023-08-21T06:28:01.231Z,15.85
2023-08-21T06:29:02.986Z,4.47
2023-08-21T06:30:05.068Z,6.07
2023-08-21T06:31:08.681Z,6.10
2023-08-21T06:32:10.647Z,7.10
2023-08-21T06:33:12.476Z,11.70
2023-08-21T06:34:14.830Z,7.68
2023-08-21T06:35:16.680Z,6.47
2023-08-21T06:36:18.416Z,8.02
2023-08-21T06:37:20.200Z,9.88
2023-08-21T06:38:21.933Z,5.30
2023-08-21T06:39:23.654Z,5.80
2023-08-21T06:40:25.471Z,11.73
2023-08-21T06:41:27.222Z,7.22
2023-08-21T06:42:28.960Z,6.70
2023-08-21T06:43:30.722Z,7.68
2023-08-21T06:44:32.812Z,7.28
2023-08-21T06:45:34.948Z,5.68
2023-08-21T06:46:37.781Z,5.35
2023-08-21T06:47:41.349Z,6.30
2023-08-21T06:48:43.768Z,9.68
2023-08-21T06:49:45.512Z,4.90
2023-08-21T06:50:47.254Z,5.43
2023-08-21T06:51:49.002Z,7.20
2023-08-21T06:52:50.733Z,4.95
2023-08-21T06:53:52.443Z,7.53
2023-08-21T06:54:54.197Z,5.07
2023-08-21T06:55:55.956Z,7.70
2023-08-21T06:56:57.657Z,3.60
2023-08-21T06:57:59.440Z,8.80
2023-08-21T06:59:01.209Z,5.53
2023-08-21T07:00:04.255Z,3.92
2023-08-21T07:01:08.391Z,9.13
2023-08-21T07:02:10.251Z,3.90
2023-08-21T07:03:12.043Z,4.82
2023-08-21T07:04:15.210Z,5.50
2023-08-21T07:05:17.059Z,7.57
2023-08-21T07:06:19.893Z,9.48
2023-08-21T07:07:21.598Z,4.93
2023-08-21T07:08:24.346Z,8.30
2023-08-21T07:09:26.316Z,8.38
2023-08-21T07:10:28.029Z,6.22
2023-08-21T07:11:29.805Z,6.88
2023-08-21T07:12:31.850Z,6.43
2023-08-21T07:13:33.638Z,9.68
2023-08-21T07:14:35.385Z,5.38
2023-08-21T07:15:37.120Z,8.32
2023-08-21T07:16:38.911Z,7.95
2023-08-21T07:17:40.670Z,6.88
2023-08-21T07:18:42.540Z,5.75
2023-08-21T07:19:47.245Z,6.53
2023-08-21T07:20:49.414Z,7.15
2023-08-21T07:21:51.125Z,6.88
2023-08-21T07:22:52.879Z,10.30
2023-08-21T07:23:54.589Z,12.68
2023-08-21T07:24:56.570Z,4.95
2023-08-21T07:25:58.792Z,6.10
2023-08-21T07:27:00.646Z,4.95
2023-08-21T07:28:02.452Z,5.50
2023-08-21T07:29:05.500Z,6.00
2023-08-21T07:30:08.385Z,4.38
2023-08-21T07:31:10.222Z,7.75
2023-08-21T07:32:12.110Z,6.53
2023-08-21T07:33:13.951Z,6.88
2023-08-21T07:34:17.128Z,4.18
2023-08-21T07:35:19.023Z,9.23
2023-08-21T07:36:20.793Z,3.75
2023-08-21T07:37:22.646Z,8.70
2023-08-21T07:38:24.381Z,4.38
2023-08-21T07:39:26.144Z,5.05
2023-08-21T07:40:27.848Z,3.83
2023-08-21T07:41:30.318Z,8.02
2023-08-21T07:42:32.090Z,4.97
2023-08-21T07:43:34.438Z,10.65
2023-08-21T07:44:36.221Z,5.55
2023-08-21T07:45:38.464Z,4.90
2023-08-21T07:46:40.216Z,3.80
2023-08-21T07:47:42.060Z,5.93
2023-08-21T07:48:44.506Z,12.27
2023-08-21T07:49:46.327Z,5.75
2023-08-21T07:50:57.331Z,4.53
2023-08-21T07:51:59.124Z,3.63
2023-08-21T07:53:00.861Z,3.00
2023-08-21T07:54:02.671Z,5.25
2023-08-21T07:55:04.688Z,8.05
2023-08-21T07:56:07.016Z,3.20
2023-08-21T07:57:08.795Z,7.88
2023-08-21T07:58:11.289Z,14.90
2023-08-21T07:59:13.026Z,6.68
2023-08-21T08:00:15.500Z,8.60
2023-08-21T08:01:17.837Z,3.85
2023-08-21T08:02:19.615Z,8.15
2023-08-21T08:03:21.448Z,6.18
2023-08-21T08:04:23.290Z,8.75
2023-08-21T08:05:25.125Z,9.80
2023-08-21T08:06:26.853Z,4.78
2023-08-21T08:07:28.569Z,7.10
2023-08-21T08:08:32.926Z,5.55
2023-08-21T08:09:34.678Z,3.25
2023-08-21T08:10:41.236Z,6.15
2023-08-21T08:11:42.973Z,5.15
2023-08-21T08:12:45.432Z,7.63
2023-08-21T08:13:47.203Z,8.80
2023-08-21T08:14:49.034Z,4.95
2023-08-21T08:15:50.842Z,8.52
2023-08-21T08:16:52.909Z,6.55
2023-08-21T08:17:56.421Z,6.68
2023-08-21T08:18:59.584Z,4.28
2023-08-21T08:20:01.344Z,4.38
2023-08-21T08:21:03.107Z,5.93
2023-08-21T08:22:04.928Z,8.45
2023-08-21T08:23:09.575Z,5.15
2023-08-21T08:24:11.300Z,6.95
2023-08-21T08:25:13.122Z,11.15
2023-08-21T08:26:14.930Z,6.63
2023-08-21T08:27:16.800Z,5.93
2023-08-21T08:28:18.561Z,3.65
2023-08-21T08:29:20.320Z,6.63
2023-08-21T08:30:22.145Z,5.78
2023-08-21T08:31:25.101Z,5.57
2023-08-21T08:32:27.913Z,5.20
2023-08-21T08:33:29.793Z,5.95
2023-08-21T08:34:31.597Z,5.10
2023-08-21T08:35:33.302Z,5.43
2023-08-21T08:36:36.479Z,7.90
2023-08-21T08:37:40.166Z,5.65
2023-08-21T08:38:41.955Z,4.88
2023-08-21T08:39:43.742Z,5.03
2023-08-21T08:40:47.960Z,5.82
2023-08-21T08:42:04.094Z,4.80
2023-08-21T08:43:06.897Z,6.55
2023-08-21T08:44:09.106Z,8.32
2023-08-21T08:45:14.546Z,4.95
2023-08-21T08:46:16.293Z,9.20
2023-08-21T08:47:19.917Z,7.53
2023-08-21T08:48:22.906Z,6.03
2023-08-21T08:49:24.855Z,5.25
2023-08-21T08:50:29.791Z,5.80
2023-08-21T08:51:36.063Z,4.85
2023-08-21T08:52:41.197Z,7.00
2023-08-21T08:53:43.978Z,7.60
2023-08-21T08:54:45.843Z,10.48
2023-08-21T08:55:47.574Z,8.18
2023-08-21T08:56:49.961Z,8.82
2023-08-21T08:57:53.682Z,12.48
2023-08-21T08:58:57.846Z,3.58
2023-08-21T08:59:59.954Z,5.95
2023-08-21T09:01:01.962Z,6.25
2023-08-21T09:02:04.182Z,7.07
2023-08-21T09:03:06.066Z,4.68
2023-08-21T09:04:08.122Z,24.05
2023-08-21T09:05:11.452Z,30.95
2023-08-21T09:06:13.201Z,17.00
2023-08-21T09:07:19.324Z,5.90
2023-08-21T09:08:21.246Z,6.93
2023-08-21T09:09:24.080Z,7.18
2023-08-21T09:10:26.617Z,6.05
2023-08-21T09:11:28.512Z,7.07
2023-08-21T09:12:33.772Z,6.88
2023-08-21T09:13:36.298Z,4.45
2023-08-21T09:14:39.932Z,5.03
2023-08-21T09:15:44.104Z,9.25
2023-08-21T09:17:05.431Z,5.18
2023-08-21T09:18:12.213Z,11.10
2023-08-21T09:19:23.348Z,5.55
2023-08-21T09:20:25.168Z,4.55
2023-08-21T09:21:29.255Z,8.18
2023-08-21T09:22:31.075Z,6.35
2023-08-21T09:23:33.180Z,13.60
2023-08-21T09:24:35.091Z,6.20
2023-08-21T09:25:40.579Z,4.47
2023-08-21T09:26:42.398Z,5.43
2023-08-21T09:27:45.188Z,4.20
2023-08-21T09:28:47.288Z,5.75
2023-08-21T09:29:49.136Z,4.90
2023-08-21T09:30:53.770Z,5.90
2023-08-21T09:31:57.577Z,5.90
2023-08-21T09:33:06.190Z,3.60
2023-08-21T09:34:08.102Z,6.28
2023-08-21T09:35:15.156Z,6.20
2023-08-21T09:36:18.072Z,4.20
2023-08-21T09:37:20.057Z,6.50
2023-08-21T09:38:22.351Z,5.55
2023-08-21T09:39:24.156Z,6.18
2023-08-21T09:40:25.923Z,6.82
2023-08-21T09:41:28.006Z,7.18
2023-08-21T09:42:29.709Z,9.82
2023-08-21T09:43:31.602Z,6.78
2023-08-21T09:44:40.867Z,6.00
2023-08-21T09:45:42.594Z,5.53
2023-08-21T09:46:44.483Z,5.90
2023-08-21T09:47:46.386Z,5.75
2023-08-21T09:48:49.095Z,5.35
2023-08-21T09:49:51.486Z,3.65
2023-08-21T09:50:53.222Z,5.63
2023-08-21T09:51:55.683Z,5.57
2023-08-21T09:52:59.546Z,4.07
2023-08-21T09:54:04.746Z,6.65
2023-08-21T09:55:07.124Z,4.45
2023-08-21T09:56:09.931Z,6.20
2023-08-21T09:57:13.906Z,4.22
2023-08-21T09:58:17.368Z,6.25
2023-08-21T09:59:19.931Z,9.20
2023-08-21T10:00:21.829Z,4.82
2023-08-21T10:01:24.150Z,5.32
2023-08-21T10:02:27.637Z,4.70
2023-08-21T10:03:30.995Z,4.35
2023-08-21T10:04:33.687Z,4.70
2023-08-21T10:05:38.229Z,4.63
2023-08-21T10:06:40.224Z,5.35
2023-08-21T10:07:43.620Z,4.50
2023-08-21T10:08:50.111Z,7.70
2023-08-21T10:09:57.858Z,4.82
2023-08-21T10:11:03.149Z,4.10
2023-08-21T10:12:06.829Z,3.45
2023-08-21T10:13:10.258Z,6.40
2023-08-21T10:14:12.912Z,11.68
2023-08-21T10:15:15.109Z,11.82
2023-08-21T10:16:24.687Z,5.63
2023-08-21T10:17:26.577Z,5.47
2023-08-21T10:18:32.324Z,9.30
2023-08-21T10:19:34.141Z,7.78
2023-08-21T10:20:37.696Z,6.30
2023-08-21T10:21:39.446Z,4.63
2023-08-21T10:22:47.772Z,5.13
2023-08-21T10:23:51.739Z,6.85
2023-08-21T10:25:00.837Z,5.40
2023-08-21T10:26:09.552Z,5.60
2023-08-21T10:27:12.479Z,6.45
2023-08-21T10:28:14.621Z,6.15
2023-08-21T10:29:17.733Z,6.07
2023-08-21T10:30:27.530Z,9.07
2023-08-21T10:31:41.221Z,4.60
2023-08-21T10:32:48.300Z,6.47
2023-08-21T10:33:50.078Z,6.60
2023-08-21T10:34:57.712Z,5.70
2023-08-21T10:35:59.548Z,5.25
2023-08-21T10:37:01.263Z,6.85
2023-08-21T10:38:14.092Z,3.78
2023-08-21T10:39:19.222Z,5.03
2023-08-21T10:40:26.299Z,3.97
2023-08-21T10:41:28.653Z,6.97
2023-08-21T10:42:42.082Z,3.85
2023-08-21T10:43:46.386Z,4.70
2023-08-21T10:44:53.894Z,7.32
2023-08-21T10:45:59.187Z,2.97
2023-08-21T10:47:29.057Z,7.32
2023-08-21T10:48:31.072Z,4.32
2023-08-21T10:49:34.467Z,3.97
2023-08-21T10:50:37.436Z,5.55
2023-08-21T10:51:39.419Z,4.53
2023-08-21T10:52:48.635Z,7.47
2023-08-21T10:53:50.401Z,7.22
2023-08-21T10:54:54.390Z,11.55
2023-08-21T10:55:56.405Z,4.13
2023-08-21T10:57:06.122Z,6.55
2023-08-21T10:58:12.593Z,3.70
2023-08-21T10:59:14.327Z,3.40
2023-08-21T11:00:18.368Z,5.07
2023-08-21T11:01:22.443Z,4.45
2023-08-21T11:02:26.202Z,6.00
2023-08-21T11:03:28.078Z,5.32
2023-08-21T11:04:29.872Z,7.13
2023-08-21T11:05:31.655Z,8.65
2023-08-21T11:06:36.325Z,8.00
2023-08-21T11:07:48.881Z,5.07
2023-08-21T11:08:50.656Z,7.78
2023-08-21T11:09:52.791Z,4.00
2023-08-21T11:10:54.625Z,7.18
2023-08-21T11:11:56.405Z,4.50
2023-08-21T11:13:03.424Z,6.90
2023-08-21T11:14:05.143Z,6.32
2023-08-21T11:15:07.321Z,6.22
2023-08-21T11:16:10.411Z,4.45
2023-08-21T11:17:13.343Z,7.57
2023-08-21T11:18:15.526Z,4.55
2023-08-21T11:19:17.291Z,5.28
2023-08-21T11:20:19.020Z,3.78
2023-08-21T11:21:20.792Z,6.90
2023-08-21T11:22:29.831Z,3.17
2023-08-21T11:23:36.047Z,8.02
2023-08-21T11:24:44.745Z,6.50
2023-08-21T11:25:46.576Z,3.80
2023-08-21T11:26:48.905Z,9.40
2023-08-21T11:27:50.676Z,11.35
2023-08-21T11:28:52.630Z,4.75
2023-08-21T11:29:54.415Z,3.95
2023-08-21T11:31:00.295Z,4.00
2023-08-21T11:32:04.298Z,6.20
2023-08-21T11:33:10.719Z,4.75
2023-08-21T11:34:22.315Z,6.97
2023-08-21T11:35:26.133Z,4.68
2023-08-21T11:36:28.038Z,6.80
2023-08-21T11:37:30.226Z,4.20
2023-08-21T11:38:32.006Z,5.70
2023-08-21T11:39:53.672Z,7.65
2023-08-21T11:41:00.034Z,3.70
2023-08-21T11:42:01.809Z,10.15
2023-08-21T11:43:04.924Z,3.85
2023-08-21T11:44:06.709Z,4.80
2023-08-21T11:45:11.765Z,4.10
2023-08-21T11:46:14.894Z,8.10
2023-08-21T11:47:18.062Z,6.45
2023-08-21T11:48:23.330Z,3.05
2023-08-21T11:49:28.155Z,9.15
2023-08-21T11:50:30.298Z,4.07
2023-08-21T11:51:39.649Z,10.18
2023-08-21T11:52:42.491Z,5.75
2023-08-21T11:53:44.473Z,4.65
2023-08-21T11:54:52.423Z,4.25
2023-08-21T11:55:55.724Z,5.25
2023-08-21T11:56:59.569Z,6.22
2023-08-21T11:58:03.026Z,5.45
2023-08-21T11:59:06.788Z,8.10
2023-08-21T12:00:12.514Z,5.20
2023-08-21T12:01:19.328Z,3.40
2023-08-21T12:02:25.406Z,5.30
2023-08-21T12:03:27.227Z,4.88
2023-08-21T12:04:29.185Z,4.72
2023-08-21T12:05:31.076Z,3.85
2023-08-21T12:06:34.066Z,4.60
2023-08-21T12:07:36.187Z,3.35
2023-08-21T12:08:39.128Z,5.10
2023-08-21T12:09:41.279Z,5.80
2023-08-21T12:10:43.038Z,7.72
2023-08-21T12:11:46.267Z,11.60
2023-08-21T12:12:48.009Z,3.30
2023-08-21T12:13:49.743Z,8.43
2023-08-21T12:14:51.939Z,5.22
2023-08-21T12:15:53.826Z,7.35
2023-08-21T12:16:56.170Z,4.88
2023-08-21T12:17:57.916Z,10.57
2023-08-21T12:18:59.810Z,4.72
2023-08-21T12:20:02.544Z,4.72
2023-08-21T12:21:04.648Z,3.50
2023-08-21T12:22:06.507Z,3.00
2023-08-21T12:23:08.756Z,6.82
2023-08-21T12:24:10.520Z,10.02
2023-08-21T12:25:12.640Z,4.70
2023-08-21T12:26:19.737Z,4.70
2023-08-21T12:27:23.224Z,7.10
2023-08-21T12:28:27.014Z,5.43
2023-08-21T12:29:28.903Z,2.90
2023-08-21T12:30:30.734Z,7.80
2023-08-21T12:31:32.535Z,10.55
2023-08-21T12:32:34.399Z,7.18
2023-08-21T12:33:36.188Z,21.85
2023-08-21T12:34:37.953Z,7.90
2023-08-21T12:35:39.673Z,4.85
2023-08-21T12:36:41.461Z,7.15
2023-08-21T12:37:43.284Z,5.10
2023-08-21T12:38:45.037Z,5.35
2023-08-21T12:39:47.079Z,5.20
2023-08-21T12:40:48.861Z,8.77
2023-08-21T12:41:50.601Z,9.05
2023-08-21T12:42:52.346Z,7.68
2023-08-21T12:43:54.132Z,3.88
2023-08-21T12:44:57.038Z,6.57
2023-08-21T12:45:58.947Z,6.60
2023-08-21T12:47:03.587Z,3.50
2023-08-21T12:48:05.804Z,8.00
2023-08-21T12:49:07.704Z,5.68
2023-08-21T12:50:09.794Z,5.10
2023-08-21T12:51:11.539Z,4.45
2023-08-21T12:52:13.618Z,2.42
2023-08-21T12:53:15.397Z,9.27
2023-08-21T12:54:17.163Z,3.72
2023-08-21T12:55:18.911Z,6.15
2023-08-21T12:56:20.698Z,5.20
2023-08-21T12:57:23.023Z,5.85
2023-08-21T12:58:24.910Z,4.07
2023-08-21T12:59:26.675Z,3.47
2023-08-21T13:00:28.618Z,4.60
2023-08-21T13:01:31.137Z,5.90
2023-08-21T13:02:33.149Z,7.78
2023-08-21T13:03:35.219Z,6.45
2023-08-21T13:04:37.081Z,7.47
2023-08-21T13:05:38.889Z,5.18
2023-08-21T13:06:40.619Z,5.30
2023-08-21T13:07:43.437Z,5.47
2023-08-21T13:08:45.354Z,8.18
2023-08-21T13:09:49.500Z,4.10
2023-08-21T13:10:51.338Z,11.25
2023-08-21T13:11:53.131Z,9.68
2023-08-21T13:12:54.853Z,7.55
2023-08-21T13:13:56.694Z,9.57
2023-08-21T13:14:59.900Z,6.00
2023-08-21T13:16:01.762Z,4.45
2023-08-21T13:17:04.267Z,4.82
2023-08-21T13:18:06.535Z,6.22
2023-08-21T13:19:08.380Z,9.27
2023-08-21T13:20:12.102Z,7.00
2023-08-21T13:21:14.066Z,4.63
2023-08-21T13:22:18.135Z,5.75
2023-08-21T13:23:23.848Z,4.30
2023-08-21T13:24:26.974Z,9.52
2023-08-21T13:25:30.028Z,6.30
2023-08-21T13:26:32.636Z,6.50
2023-08-21T13:27:34.438Z,4.15
2023-08-21T13:28:36.199Z,7.63
2023-08-21T13:29:38.849Z,6.82
2023-08-21T13:30:40.640Z,6.55
2023-08-21T13:31:42.402Z,10.30
2023-08-21T13:32:44.850Z,13.15
2023-08-21T13:33:51.889Z,6.60
2023-08-21T13:34:53.866Z,9.40
2023-08-21T13:35:55.661Z,8.18
2023-08-21T13:36:57.459Z,64.22
2023-08-21T13:37:59.198Z,13.07
2023-08-21T13:39:00.973Z,7.60
2023-08-21T13:40:15.353Z,5.55
2023-08-21T13:41:17.130Z,13.27
2023-08-21T13:42:18.856Z,8.13
2023-08-21T13:43:22.095Z,5.70
2023-08-21T13:44:25.705Z,4.55
2023-08-21T13:45:27.780Z,7.03
2023-08-21T13:46:29.566Z,3.97
2023-08-21T13:47:31.378Z,7.55
2023-08-21T13:48:36.458Z,4.80
2023-08-21T13:49:38.228Z,5.80
2023-08-21T13:50:40.046Z,8.82
2023-08-21T13:51:42.179Z,10.90